Craig G — WDB5332 — position and weather

sailwx.info

Track history (hours):
 
Tides and Currents Weather Stations Pressure Air Temp Water Temp Dewpoint Dewpoint Depression Visibility Wind Speed Wind Dir Waves Ship Positions

Craig G

Owner: San Diego Towing & Marine Services,Inc., San Diego, CA. More information available from US FCC via Universal Licensing System and Coast Guard Vessel Documentation Center.

Last reported at 2016-May-04 21:28 UTC. Time now 2016-May-05 04:48 UTC.
Position N 32°42' W 117°09'.

Length 31 m; draft 2 m.

Type: Ship. MMSI: 366908460.

Date/timePositionNaut miles runAvg speedWind from/ knotsBaromVisibWave heightAir tempDewpointWater temp
2016-May-04 21:28N 32°42' W 117°09'8 8.9
2016-May-04 20:33N 32°37' W 117°17'1 0.5
2016-May-04 19:27N 32°37' W 117°17'8 4.1
2016-May-04 17:33N 32°42' W 117°10'8 6.8
2016-May-04 16:26N 32°37' W 117°17'6 7.1
2016-May-04 15:32N 32°43' W 117°13'3 0.2
2016-May-03 23:33N 32°42' W 117°09'4 2.9
2016-May-03 22:07N 32°40' W 117°14'4 7.4
2016-May-03 21:32N 32°42' W 117°09'8 6.1
2016-May-03 20:09N 32°37' W 117°17'1 0.8
2016-May-03 19:20N 32°37' W 117°18'7 8.7
2016-May-03 18:33N 32°43' W 117°13'  
Track history (hours):
 
Tides and Currents Weather Stations Pressure Air Temp Water Temp Dewpoint Dewpoint Depression Visibility Wind Speed Wind Dir Waves Ship Positions

Craig G

Owner: San Diego Towing & Marine Services,Inc., San Diego, CA. More information available from US FCC via Universal Licensing System and Coast Guard Vessel Documentation Center.

Last reported at 2016-May-04 21:28 UTC. Time now 2016-May-05 04:48 UTC.
Position N 32°42' W 117°09'.

Length 31 m; draft 2 m.

Type: Ship. MMSI: 366908460.

Date/timePositionNaut miles runAvg speedWind from/ knotsBaromVisibWave heightAir tempDewpointWater temp
2016-May-04 21:28N 32°42' W 117°09'8 8.9
2016-May-04 20:33N 32°37' W 117°17'1 0.5
2016-May-04 19:27N 32°37' W 117°17'8 4.1
2016-May-04 17:33N 32°42' W 117°10'8 6.8
2016-May-04 16:26N 32°37' W 117°17'6 7.1
2016-May-04 15:32N 32°43' W 117°13'3 0.2
2016-May-03 23:33N 32°42' W 117°09'4 2.9
2016-May-03 22:07N 32°40' W 117°14'4 7.4
2016-May-03 21:32N 32°42' W 117°09'8 6.1
2016-May-03 20:09N 32°37' W 117°17'1 0.8
2016-May-03 19:20N 32°37' W 117°18'7 8.7
2016-May-03 18:33N 32°43' W 117°13'  

Dump ship's entire track history